Time;durP1;ratioP1;P1;durP2;ratioP2;P2;SDS_P1;SDS_P2;PMS_P1;PMS_P2;Temp;Humidity;BMP_temperature;BMP_pressure;BME280_temperature;BME280_humidity;BME280_pressure;Samples;Min_cycle;Max_cycle;Signal;HPM_P1;HPM_P2
2023/01/24 00:01:31;;;;;;;19.90;11.10;;;3.00;99.90;;;;;;5030244;28;20052;-53
2023/01/24 00:03:57;;;;;;;20.27;11.13;;;3.00;99.90;;;;;;5030138;28;20040;-54
2023/01/24 00:06:23;;;;;;;18.80;10.20;;;3.00;99.90;;;;;;5030031;28;20037;-55
2023/01/24 00:08:48;;;;;;;16.43;10.00;;;3.00;99.90;;;;;;5030215;28;20033;-52
2023/01/24 00:11:14;;;;;;;17.10;10.17;;;3.10;99.90;;;;;;5030299;28;20072;-50
2023/01/24 00:13:40;;;;;;;20.37;10.77;;;3.10;99.90;;;;;;5029944;28;20116;-51
2023/01/24 00:16:17;;;;;;;19.80;10.37;;;3.00;99.90;;;;;;5029971;28;20034;-51
2023/01/24 00:18:44;;;;;;;17.57;10.30;;;3.00;99.90;;;;;;5030079;28;20271;-50
2023/01/24 00:21:15;;;;;;;19.80;10.90;;;3.00;99.90;;;;;;5030199;28;20041;-52
2023/01/24 00:23:46;;;;;;;19.10;10.60;;;2.90;99.90;;;;;;5029957;28;20112;-51
2023/01/24 00:26:12;;;;;;;17.97;10.47;;;2.90;99.90;;;;;;5030595;28;20021;-51
2023/01/24 00:28:41;;;;;;;18.77;10.48;;;2.90;99.90;;;;;;5029892;28;20036;-53
2023/01/24 00:31:07;;;;;;;19.77;10.93;;;2.90;99.90;;;;;;5029744;28;20531;-53
2023/01/24 00:33:33;;;;;;;18.17;10.23;;;2.90;99.90;;;;;;5029836;28;20068;-49
2023/01/24 00:35:59;;;;;;;17.17;10.20;;;2.90;99.90;;;;;;5028678;28;20457;-52
2023/01/24 00:38:25;;;;;;;18.77;10.87;;;2.90;99.90;;;;;;5029688;28;20100;-51
2023/01/24 00:40:51;;;;;;;18.37;10.40;;;3.00;99.90;;;;;;5029874;28;20033;-51
2023/01/24 00:43:17;;;;;;;19.20;10.93;;;3.00;99.90;;;;;;5029871;28;20033;-49
2023/01/24 00:45:44;;;;;;;18.20;10.10;;;3.00;99.90;;;;;;5029765;28;20025;-54
2023/01/24 00:48:11;;;;;;;18.67;10.03;;;2.90;99.90;;;;;;5029676;28;20099;-52
2023/01/24 00:50:36;;;;;;;18.03;10.57;;;2.90;99.90;;;;;;5032750;28;20136;-50
2023/01/24 00:53:03;;;;;;;20.30;11.30;;;2.90;99.90;;;;;;5033825;28;20104;-50
2023/01/24 00:55:29;;;;;;;17.67;10.03;;;2.90;99.90;;;;;;5033241;28;20440;-52
2023/01/24 00:57:55;;;;;;;21.43;11.10;;;2.90;99.90;;;;;;5033147;28;20052;-51
2023/01/24 01:00:21;;;;;;;20.63;10.77;;;2.80;99.90;;;;;;5033035;28;20470;-51
2023/01/24 01:02:50;;;;;;;17.63;10.20;;;2.80;99.90;;;;;;5033231;28;20025;-52
2023/01/24 01:05:17;;;;;;;18.07;10.10;;;2.80;99.90;;;;;;5033108;28;20025;-50
2023/01/24 01:07:43;;;;;;;16.57;8.10;;;2.80;99.90;;;;;;5033005;28;20029;-51
2023/01/24 01:10:10;;;;;;;17.77;10.63;;;2.80;99.90;;;;;;5031701;28;20037;-53
2023/01/24 01:12:36;;;;;;;16.10;9.73;;;2.80;99.90;;;;;;5032974;28;20025;-49
2023/01/24 01:15:03;;;;;;;18.40;9.80;;;2.80;99.90;;;;;;5032760;28;20486;-53
2023/01/24 01:17:28;;;;;;;17.03;9.50;;;2.70;99.90;;;;;;5031339;28;20512;-51
2023/01/24 01:19:55;;;;;;;16.27;9.30;;;2.80;99.90;;;;;;5031471;28;20033;-51
2023/01/24 01:22:21;;;;;;;16.87;9.23;;;2.80;99.90;;;;;;5032900;28;20025;-53
2023/01/24 01:24:47;;;;;;;14.57;8.50;;;2.80;99.90;;;;;;5032802;28;20385;-52
2023/01/24 01:27:12;;;;;;;17.10;9.23;;;2.80;99.90;;;;;;5031175;28;20092;-52
2023/01/24 01:29:38;;;;;;;15.77;8.87;;;2.70;99.90;;;;;;5032477;28;20123;-54
2023/01/24 01:32:04;;;;;;;15.33;8.50;;;2.80;99.90;;;;;;5032735;28;20033;-54
2023/01/24 01:34:30;;;;;;;17.13;9.10;;;2.80;99.90;;;;;;5032520;28;20430;-54
2023/01/24 01:36:56;;;;;;;16.23;9.30;;;2.80;99.90;;;;;;5032360;28;20037;-50
2023/01/24 01:39:21;;;;;;;13.90;8.13;;;2.80;99.90;;;;;;5032477;28;20037;-49
2023/01/24 01:41:47;;;;;;;14.77;8.37;;;2.80;99.90;;;;;;5031161;28;20120;-50
2023/01/24 01:44:54;;;;;;;15.70;9.13;;;2.80;99.90;;;;;;5030948;28;20068;-51
2023/01/24 01:47:32;;;;;;;16.50;9.40;;;2.80;99.90;;;;;;5030068;28;20075;-52
2023/01/24 01:50:24;;;;;;;15.33;8.80;;;2.80;99.90;;;;;;5032279;28;20509;-52
2023/01/24 01:52:49;;;;;;;15.97;8.63;;;2.80;99.90;;;;;;5031248;28;20213;-51
2023/01/24 01:55:18;;;;;;;14.17;8.70;;;2.80;99.90;;;;;;5030773;28;20072;-51
2023/01/24 01:57:47;;;;;;;13.88;8.40;;;2.80;99.90;;;;;;5032011;28;20398;-53
2023/01/24 02:00:23;;;;;;;15.57;9.00;;;2.70;99.90;;;;;;5031852;28;20040;-52
2023/01/24 02:03:37;;;;;;;12.77;7.47;;;2.70;99.90;;;;;;5030512;28;20433;-52
2023/01/24 02:05:41;;;;;;;13.87;7.90;;;2.70;99.90;;;;;;5030434;28;20030;-50
2023/01/24 02:08:12;;;;;;;13.53;7.87;;;2.80;99.90;;;;;;5030596;28;20061;-51
2023/01/24 02:13:23;;;;;;;12.63;7.30;;;2.80;99.90;;;;;;5031931;28;20396;-52
2023/01/24 02:16:05;;;;;;;12.30;7.60;;;2.80;99.90;;;;;;5031817;28;20048;-50
2023/01/24 02:18:35;;;;;;;14.27;8.47;;;2.70;99.90;;;;;;5030276;28;20029;-54
2023/01/24 02:21:04;;;;;;;12.07;6.40;;;2.70;99.90;;;;;;5032202;28;20024;-54
2023/01/24 02:23:39;;;;;;;14.52;7.75;;;2.70;99.90;;;;;;5030112;28;20099;-50
2023/01/24 02:26:09;;;;;;;15.03;8.17;;;2.80;99.90;;;;;;5031750;28;20060;-51
2023/01/24 02:28:36;;;;;;;15.07;7.70;;;2.80;99.90;;;;;;5030068;28;20405;-51
2023/01/24 02:31:04;;;;;;;13.53;7.67;;;2.80;99.90;;;;;;5030066;28;20052;-52
2023/01/24 02:33:31;;;;;;;12.43;7.10;;;2.80;99.90;;;;;;5030089;28;20060;-51
2023/01/24 02:36:09;;;;;;;12.33;7.20;;;2.80;99.90;;;;;;5031529;28;20570;-52
2023/01/24 02:38:34;;;;;;;13.80;7.73;;;2.60;99.90;;;;;;5031176;28;20037;-52
2023/01/24 02:41:06;;;;;;;13.47;7.97;;;2.70;99.90;;;;;;5031358;28;20026;-53
2023/01/24 02:43:37;;;;;;;13.77;7.77;;;2.70;99.90;;;;;;5029791;28;20116;-53
2023/01/24 02:46:03;;;;;;;13.53;7.47;;;2.60;99.90;;;;;;5029984;28;20044;-52
2023/01/24 02:48:29;;;;;;;13.27;7.67;;;2.70;99.90;;;;;;5030855;28;20234;-50
2023/01/24 02:53:39;;;;;;;13.33;7.73;;;2.70;99.90;;;;;;5029700;28;20029;-52
2023/01/24 02:58:51;;;;;;;12.40;6.77;;;2.60;99.90;;;;;;5030912;28;20033;-53
2023/01/24 03:01:20;;;;;;;11.97;6.20;;;2.60;99.90;;;;;;5030901;28;20021;-53
2023/01/24 03:03:51;;;;;;;11.47;6.93;;;2.60;99.90;;;;;;5029546;28;20410;-51
2023/01/24 03:06:18;;;;;;;11.20;6.50;;;2.70;99.90;;;;;;5029529;28;20124;-53
2023/01/24 03:08:44;;;;;;;11.43;6.47;;;2.60;99.90;;;;;;5029619;28;20029;-51
2023/01/24 03:11:29;;;;;;;10.63;6.57;;;2.70;99.90;;;;;;5029388;28;20079;-52
2023/01/24 03:36:01;;;;;;;10.27;6.13;;;2.60;99.90;;;;;;5030553;28;20029;-47
2023/01/24 03:41:15;;;;;;;12.73;6.90;;;2.60;99.90;;;;;;5029116;28;20026;-49
2023/01/24 03:43:43;;;;;;;11.53;6.73;;;2.60;99.90;;;;;;5012554;28;20025;-50
2023/01/24 03:46:10;;;;;;;12.07;7.00;;;2.60;99.90;;;;;;5012803;28;20029;-47
2023/01/24 03:48:44;;;;;;;11.67;6.50;;;2.60;99.90;;;;;;5012617;28;20090;-50
2023/01/24 03:53:54;;;;;;;11.70;7.07;;;2.60;99.90;;;;;;5012437;28;20112;-48
2023/01/24 03:56:25;;;;;;;11.20;6.77;;;2.60;99.90;;;;;;5012448;28;20030;-48
2023/01/24 03:58:56;;;;;;;12.57;7.00;;;2.60;99.90;;;;;;5012756;28;20152;-48
2023/01/24 04:01:25;;;;;;;11.43;6.60;;;2.60;99.90;;;;;;5012388;28;20390;-48
2023/01/24 04:04:16;;;;;;;12.93;7.00;;;2.50;99.90;;;;;;5025097;28;20433;-49
2023/01/24 04:06:42;;;;;;;12.23;6.87;;;2.50;99.90;;;;;;5030137;28;20074;-49
2023/01/24 04:09:10;;;;;;;13.83;6.87;;;2.50;99.90;;;;;;5012603;28;20030;-48
2023/01/24 04:11:37;;;;;;;13.10;7.27;;;2.60;99.90;;;;;;4996116;28;20021;-48
2023/01/24 04:14:09;;;;;;;13.73;6.40;;;2.60;99.90;;;;;;5012308;28;20055;-49
2023/01/24 04:16:41;;;;;;;13.40;7.30;;;2.50;99.90;;;;;;5012168;28;20034;-48
2023/01/24 04:19:15;;;;;;;11.90;7.03;;;2.50;99.90;;;;;;5012350;28;20030;-48
2023/01/24 04:21:42;;;;;;;12.37;7.00;;;2.50;99.90;;;;;;5012524;28;20032;-48
2023/01/24 04:24:09;;;;;;;11.67;6.43;;;2.60;99.90;;;;;;5013049;28;20112;-49
2023/01/24 04:26:38;;;;;;;11.10;6.25;;;2.60;99.90;;;;;;5015955;28;20030;-52
2023/01/24 04:29:07;;;;;;;10.07;6.00;;;2.60;99.90;;;;;;5016073;28;20038;-50
2023/01/24 04:31:34;;;;;;;11.17;6.67;;;2.60;99.90;;;;;;5016031;28;20497;-49
2023/01/24 04:34:20;;;;;;;11.47;6.30;;;2.60;99.90;;;;;;5033222;28;20453;-49
2023/01/24 04:36:45;;;;;;;10.27;6.47;;;2.50;99.90;;;;;;5033449;28;20030;-48
2023/01/24 04:39:12;;;;;;;13.40;6.60;;;2.50;99.90;;;;;;5016156;28;20396;-48
2023/01/24 04:41:47;;;;;;;11.50;6.27;;;2.50;99.90;;;;;;5016010;28;20036;-47
2023/01/24 04:44:14;;;;;;;12.00;6.40;;;2.40;99.90;;;;;;5015916;28;20056;-49
2023/01/24 04:46:40;;;;;;;12.83;6.87;;;2.40;99.90;;;;;;5015631;28;20454;-46
2023/01/24 04:49:05;;;;;;;11.60;6.77;;;2.40;99.90;;;;;;5015701;28;20390;-46
2023/01/24 04:51:42;;;;;;;10.87;6.27;;;2.40;99.90;;;;;;5015613;28;20087;-49
2023/01/24 04:54:10;;;;;;;12.63;6.93;;;2.40;99.90;;;;;;5015542;28;20045;-46
2023/01/24 04:56:37;;;;;;;10.07;6.03;;;2.40;99.90;;;;;;5015265;28;20538;-46
2023/01/24 04:59:03;;;;;;;12.10;7.00;;;2.40;99.90;;;;;;5015603;28;20124;-47
2023/01/24 05:01:30;;;;;;;12.77;7.00;;;2.30;99.90;;;;;;5015503;28;20045;-46
2023/01/24 05:04:05;;;;;;;11.20;6.50;;;2.30;99.90;;;;;;5015410;28;20025;-45
2023/01/24 05:06:33;;;;;;;11.87;6.47;;;2.30;99.90;;;;;;5015205;28;20116;-47
2023/01/24 05:08:59;;;;;;;11.57;6.63;;;2.30;99.90;;;;;;5015398;28;20030;-45
2023/01/24 05:11:35;;;;;;;11.47;6.57;;;2.40;99.90;;;;;;5015280;28;20061;-45
2023/01/24 05:14:02;;;;;;;11.85;6.93;;;2.30;99.90;;;;;;5015222;28;20040;-48
2023/01/24 05:16:28;;;;;;;12.27;7.13;;;2.30;99.90;;;;;;5014950;28;20037;-45
2023/01/24 05:18:54;;;;;;;12.03;6.80;;;2.30;99.90;;;;;;5015145;28;20042;-47
2023/01/24 05:21:20;;;;;;;13.83;7.33;;;2.30;99.90;;;;;;5015088;28;20390;-48
2023/01/24 05:23:53;;;;;;;12.50;6.97;;;2.30;99.90;;;;;;5014948;28;20033;-46
2023/01/24 05:26:23;;;;;;;12.87;7.37;;;2.30;99.90;;;;;;5014813;28;20502;-49
2023/01/24 05:28:50;;;;;;;13.75;7.57;;;2.30;99.90;;;;;;5015060;28;20030;-46
2023/01/24 05:31:16;;;;;;;13.73;7.93;;;2.30;99.90;;;;;;5015034;28;20057;-46
2023/01/24 05:33:43;;;;;;;12.47;7.77;;;2.30;99.90;;;;;;5014759;28;20040;-48
2023/01/24 05:36:12;;;;;;;13.47;7.57;;;2.30;99.90;;;;;;5013901;28;20030;-47
2023/01/24 05:38:38;;;;;;;15.10;6.90;;;2.30;99.90;;;;;;5032362;28;20032;-47
2023/01/24 05:41:07;;;;;;;12.90;7.80;;;2.30;99.90;;;;;;5032912;28;20440;-51
2023/01/24 05:43:34;;;;;;;14.27;8.27;;;2.30;99.90;;;;;;5014606;28;20087;-49
2023/01/24 05:46:02;;;;;;;14.07;7.40;;;2.40;99.90;;;;;;5032553;28;20061;-48
2023/01/24 05:48:32;;;;;;;13.80;8.40;;;2.40;99.90;;;;;;5014555;28;20029;-52
2023/01/24 05:51:07;;;;;;;15.30;8.03;;;2.40;99.90;;;;;;5014685;28;20389;-48
2023/01/24 05:53:35;;;;;;;13.70;7.50;;;2.40;99.90;;;;;;5014412;28;20038;-51
2023/01/24 05:56:06;;;;;;;13.77;7.40;;;2.40;99.90;;;;;;5014427;28;20109;-47
2023/01/24 05:58:34;;;;;;;14.27;8.10;;;2.40;99.90;;;;;;5014232;28;20436;-49
2023/01/24 06:01:16;;;;;;;15.00;8.77;;;2.40;99.90;;;;;;5014450;28;20581;-47
2023/01/24 06:03:45;;;;;;;15.10;8.17;;;2.40;99.90;;;;;;5014315;28;20029;-49
2023/01/24 06:06:13;;;;;;;15.10;8.20;;;2.30;99.90;;;;;;5014337;28;20027;-48
2023/01/24 06:08:40;;;;;;;15.77;8.63;;;2.40;99.90;;;;;;5014046;28;20087;-50
2023/01/24 06:11:13;;;;;;;14.27;8.23;;;2.40;99.90;;;;;;5014278;28;20233;-46
2023/01/24 06:13:39;;;;;;;14.70;8.47;;;2.40;99.90;;;;;;5014223;28;20509;-49
2023/01/24 06:16:26;;;;;;;16.73;9.07;;;2.40;99.90;;;;;;5014209;28;20034;-47
2023/01/24 06:18:53;;;;;;;14.93;8.13;;;2.40;99.90;;;;;;5014025;28;20482;-49
2023/01/24 06:21:46;;;;;;;14.53;8.30;;;2.40;99.90;;;;;;5014008;28;20025;-47
2023/01/24 06:24:22;;;;;;;15.70;8.63;;;2.40;99.90;;;;;;5013743;28;20025;-49
2023/01/24 06:27:07;;;;;;;14.47;8.90;;;2.40;99.90;;;;;;5013916;28;20540;-47
2023/01/24 06:29:33;;;;;;;14.57;8.37;;;2.50;99.90;;;;;;5014055;28;20044;-46
2023/01/24 06:32:13;;;;;;;13.50;7.97;;;2.50;99.90;;;;;;5031599;28;20044;-47
2023/01/24 06:34:58;;;;;;;16.45;9.45;;;2.50;99.90;;;;;;5031541;28;20445;-46
2023/01/24 06:37:35;;;;;;;12.60;7.23;;;2.50;99.90;;;;;;5031279;28;20485;-49
2023/01/24 06:40:04;;;;;;;13.97;8.63;;;2.50;99.90;;;;;;5031439;28;20509;-46
2023/01/24 06:42:30;;;;;;;16.60;8.90;;;2.50;99.90;;;;;;5031703;28;20017;-48
2023/01/24 06:44:55;;;;;;;14.80;8.60;;;2.50;99.90;;;;;;5031242;28;20103;-49
2023/01/24 06:47:23;;;;;;;17.97;8.80;;;2.40;99.90;;;;;;5031026;28;20033;-47
2023/01/24 06:49:49;;;;;;;15.43;9.50;;;2.40;99.90;;;;;;5031201;28;20474;-51
2023/01/24 06:52:15;;;;;;;14.23;8.00;;;2.30;99.90;;;;;;5031737;28;20036;-48
2023/01/24 06:54:40;;;;;;;14.40;8.53;;;2.40;99.90;;;;;;5031020;28;20071;-47
2023/01/24 06:57:06;;;;;;;15.30;8.43;;;2.30;99.90;;;;;;5030981;28;20060;-48
2023/01/24 06:59:32;;;;;;;16.27;8.80;;;2.40;99.90;;;;;;5013402;28;20041;-48
2023/01/24 07:01:58;;;;;;;15.00;9.37;;;2.40;99.90;;;;;;5031083;28;20033;-46
2023/01/24 07:04:23;;;;;;;15.73;9.27;;;2.40;99.90;;;;;;5030929;28;20033;-46
2023/01/24 07:06:52;;;;;;;15.20;8.83;;;2.40;99.90;;;;;;5030645;28;20084;-47
2023/01/24 07:09:19;;;;;;;17.40;9.17;;;2.40;99.90;;;;;;5030952;28;20382;-48
2023/01/24 07:11:49;;;;;;;15.93;9.23;;;2.40;99.90;;;;;;5031049;28;20421;-46
2023/01/24 07:14:15;;;;;;;16.17;9.27;;;2.40;99.90;;;;;;5030732;28;20033;-46
2023/01/24 07:16:41;;;;;;;17.60;9.93;;;2.40;99.90;;;;;;5030703;28;20040;-47
2023/01/24 07:19:14;;;;;;;16.27;9.17;;;2.40;99.90;;;;;;5030736;28;20033;-49
2023/01/24 07:21:39;;;;;;;17.87;9.43;;;2.40;99.90;;;;;;5030862;28;20040;-52
2023/01/24 07:24:17;;;;;;;17.60;9.20;;;2.40;99.90;;;;;;5012806;28;20030;-46
2023/01/24 07:26:43;;;;;;;16.87;9.40;;;2.40;99.90;;;;;;5030634;28;20037;-47
2023/01/24 07:29:09;;;;;;;16.67;9.63;;;2.40;99.90;;;;;;5030625;28;20114;-46
2023/01/24 07:31:35;;;;;;;16.10;9.03;;;2.40;99.90;;;;;;5030543;28;20086;-50
2023/01/24 07:34:01;;;;;;;17.07;9.83;;;2.40;99.90;;;;;;5030384;28;20037;-49
2023/01/24 07:36:26;;;;;;;16.40;9.53;;;2.50;99.90;;;;;;5030505;28;20025;-48
2023/01/24 07:38:56;;;;;;;18.23;9.80;;;2.40;99.90;;;;;;5030532;28;20052;-48
2023/01/24 07:41:22;;;;;;;15.77;9.13;;;2.40;99.90;;;;;;5030621;28;20036;-47
2023/01/24 07:43:52;;;;;;;15.83;8.50;;;2.40;99.90;;;;;;5012569;28;20505;-50
2023/01/24 07:46:19;;;;;;;14.43;8.80;;;2.50;99.90;;;;;;5030289;28;20037;-47
2023/01/24 07:48:45;;;;;;;15.03;8.97;;;2.50;99.90;;;;;;5030288;28;20072;-47
2023/01/24 07:51:10;;;;;;;16.73;9.17;;;2.50;99.90;;;;;;5030392;28;20065;-48
2023/01/24 07:53:36;;;;;;;15.83;8.90;;;2.40;99.90;;;;;;5030241;28;20021;-49
2023/01/24 07:56:03;;;;;;;14.50;8.13;;;2.40;99.90;;;;;;5030467;28;20083;-47
2023/01/24 07:58:29;;;;;;;14.73;8.57;;;2.40;99.90;;;;;;5030228;28;20536;-47
2023/01/24 08:00:55;;;;;;;12.80;8.13;;;2.50;99.90;;;;;;5034263;28;20100;-47
2023/01/24 08:03:21;;;;;;;13.43;8.47;;;2.50;99.90;;;;;;5034291;28;20458;-48
2023/01/24 08:05:46;;;;;;;13.90;8.23;;;2.40;99.90;;;;;;5034243;28;20025;-47
2023/01/24 08:08:12;;;;;;;14.20;8.47;;;2.40;99.90;;;;;;5034170;28;20033;-46
2023/01/24 08:10:38;;;;;;;15.93;8.07;;;2.40;99.90;;;;;;5034224;28;20045;-49
2023/01/24 08:13:04;;;;;;;14.20;8.27;;;2.40;99.90;;;;;;5034381;28;20029;-48
2023/01/24 08:15:29;;;;;;;13.60;7.93;;;2.40;99.90;;;;;;5016445;28;20492;-48
2023/01/24 08:17:55;;;;;;;13.60;8.03;;;2.40;99.90;;;;;;5033848;28;20040;-47
2023/01/24 08:20:21;;;;;;;14.67;8.30;;;2.50;99.90;;;;;;5033981;28;20029;-47
2023/01/24 08:22:47;;;;;;;14.33;8.13;;;2.50;99.90;;;;;;5034078;28;20612;-46
2023/01/24 08:25:13;;;;;;;13.10;8.10;;;2.50;99.90;;;;;;5033925;28;20040;-46
2023/01/24 08:27:42;;;;;;;12.73;7.80;;;2.50;99.90;;;;;;5033829;28;20029;-50
2023/01/24 08:30:10;;;;;;;12.73;7.78;;;2.60;99.90;;;;;;5033667;28;20160;-49
2023/01/24 08:32:36;;;;;;;12.33;7.23;;;2.60;99.90;;;;;;5034247;28;20037;-51
2023/01/24 08:35:03;;;;;;;13.40;7.37;;;2.60;99.90;;;;;;5033847;28;20045;-47
2023/01/24 08:37:28;;;;;;;14.40;7.57;;;2.60;99.90;;;;;;5033615;28;20449;-46
2023/01/24 08:39:56;;;;;;;11.57;7.57;;;2.50;99.90;;;;;;5033786;28;20125;-49
2023/01/24 08:42:23;;;;;;;12.93;7.33;;;2.60;99.90;;;;;;5033973;28;20026;-50
2023/01/24 08:44:48;;;;;;;14.67;8.00;;;2.60;99.90;;;;;;5033423;28;20475;-49
2023/01/24 08:47:14;;;;;;;12.50;7.10;;;2.60;99.90;;;;;;5033616;28;20037;-47
2023/01/24 08:49:40;;;;;;;12.13;7.47;;;2.60;99.90;;;;;;5033698;28;20255;-47
2023/01/24 08:52:06;;;;;;;13.83;7.60;;;2.60;99.90;;;;;;5033595;28;20029;-48
2023/01/24 08:54:32;;;;;;;18.93;10.63;;;2.60;99.90;;;;;;5033478;28;20044;-51
2023/01/24 08:56:59;;;;;;;14.13;6.80;;;2.60;99.90;;;;;;5033316;28;20072;-53
2023/01/24 08:59:25;;;;;;;13.00;7.27;;;2.70;99.90;;;;;;5033377;28;20029;-49
2023/01/24 09:01:50;;;;;;;13.00;7.47;;;2.80;99.90;;;;;;5033403;28;20100;-51
2023/01/24 09:04:16;;;;;;;12.07;7.00;;;2.70;99.90;;;;;;5033183;28;20441;-48
2023/01/24 09:06:42;;;;;;;10.97;7.03;;;2.80;99.90;;;;;;5033109;28;20219;-48
2023/01/24 09:09:08;;;;;;;10.50;6.40;;;2.80;99.90;;;;;;5033313;28;20049;-46
2023/01/24 09:11:33;;;;;;;11.27;6.63;;;2.70;99.90;;;;;;5033099;28;20029;-50
2023/01/24 09:13:59;;;;;;;12.87;7.07;;;2.70;99.90;;;;;;5033066;28;20114;-49
2023/01/24 09:16:27;;;;;;;13.50;6.57;;;2.70;99.90;;;;;;5032982;28;20108;-47
2023/01/24 09:18:53;;;;;;;13.13;6.67;;;2.80;99.90;;;;;;5032913;28;20044;-49
2023/01/24 09:21:20;;;;;;;10.40;6.67;;;2.70;99.90;;;;;;5033013;28;20098;-46
2023/01/24 09:23:46;;;;;;;10.50;7.03;;;2.80;99.90;;;;;;5032827;28;20033;-50
2023/01/24 09:26:11;;;;;;;11.77;6.77;;;2.80;99.90;;;;;;5033169;28;20036;-46
2023/01/24 09:28:39;;;;;;;14.00;7.20;;;2.70;99.90;;;;;;5014956;28;20025;-47
2023/01/24 09:31:07;;;;;;;14.37;8.00;;;2.80;99.90;;;;;;5046011;23;20057;-52
2023/01/24 09:33:33;;;;;;;11.07;6.80;;;2.70;99.90;;;;;;5032377;28;20026;-54
2023/01/24 09:36:01;;;;;;;12.23;6.90;;;2.70;99.90;;;;;;5032796;28;20462;-48
2023/01/24 09:38:29;;;;;;;11.43;6.63;;;2.80;99.90;;;;;;5032838;28;20041;-52
2023/01/24 09:40:57;;;;;;;14.63;7.23;;;2.80;99.90;;;;;;5033042;28;20033;-53
2023/01/24 09:43:41;;;;;;;11.50;7.43;;;2.90;99.90;;;;;;5032451;28;20029;-52
2023/01/24 09:46:32;;;;;;;11.93;6.90;;;2.90;99.90;;;;;;5032701;28;20037;-52
2023/01/24 09:49:08;;;;;;;13.33;7.63;;;3.10;99.90;;;;;;5032457;28;20037;-50
2023/01/24 09:51:38;;;;;;;11.03;6.80;;;3.10;99.90;;;;;;5032352;28;20025;-50
2023/01/24 09:54:05;;;;;;;13.40;7.03;;;3.10;99.90;;;;;;5032292;28;20034;-52
2023/01/24 09:56:37;;;;;;;13.97;7.57;;;3.00;99.90;;;;;;5032266;28;20065;-52
2023/01/24 09:59:12;;;;;;;11.57;6.73;;;3.00;99.90;;;;;;5032235;28;20060;-51
2023/01/24 10:01:40;;;;;;;12.63;7.47;;;3.00;99.90;;;;;;5032202;28;20025;-49
2023/01/24 10:04:15;;;;;;;11.43;6.90;;;3.10;99.90;;;;;;5032029;28;20059;-51
2023/01/24 10:06:55;;;;;;;11.40;7.17;;;3.20;99.90;;;;;;5032176;28;20394;-52
2023/01/24 10:09:32;;;;;;;;;;;3.20;99.90;;;;;;5033043;28;20431;-52
2023/01/24 10:12:15;;;;;;;12.87;7.60;;;3.10;99.90;;;;;;5032319;28;20354;-50
2023/01/24 10:14:50;;;;;;;12.57;7.23;;;3.20;99.90;;;;;;5032277;28;20025;-53
2023/01/24 10:17:38;;;;;;;12.37;7.73;;;3.20;99.90;;;;;;5032131;28;20122;-51
2023/01/24 10:20:13;;;;;;;13.70;7.77;;;3.20;99.90;;;;;;5032115;28;20048;-51
2023/01/24 10:22:54;;;;;;;14.27;7.97;;;3.20;99.90;;;;;;5031630;28;20029;-50
2023/01/24 10:25:48;;;;;;;14.20;8.07;;;3.20;99.90;;;;;;5032147;28;20049;-53
2023/01/24 10:28:28;;;;;;;12.97;7.63;;;3.30;99.90;;;;;;5031948;28;20398;-53
2023/01/24 10:31:14;;;;;;;13.27;7.50;;;3.30;99.90;;;;;;5031773;28;20136;-48
2023/01/24 10:33:48;;;;;;;12.77;7.53;;;3.20;99.90;;;;;;5030422;28;20034;-50
2023/01/24 10:36:34;;;;;;;12.33;7.00;;;3.30;99.90;;;;;;5031770;28;20068;-49
2023/01/24 10:39:00;;;;;;;15.40;6.50;;;3.40;99.90;;;;;;5031709;28;20040;-50
2023/01/24 10:41:30;;;;;;;12.90;6.57;;;3.40;99.90;;;;;;5031631;28;20033;-50
2023/01/24 10:44:01;;;;;;;10.93;6.37;;;3.40;99.90;;;;;;5031514;28;20129;-52
2023/01/24 10:46:38;;;;;;;10.57;6.60;;;3.50;99.90;;;;;;5031322;28;20044;-51
2023/01/24 10:49:11;;;;;;;10.43;6.50;;;3.60;99.90;;;;;;5031345;28;20514;-51
2023/01/24 10:51:37;;;;;;;12.70;7.53;;;3.50;99.90;;;;;;5031385;28;20045;-50
2023/01/24 10:54:03;;;;;;;14.20;6.90;;;3.50;99.90;;;;;;5031068;28;20120;-49
2023/01/24 10:56:37;;;;;;;12.93;7.00;;;3.50;99.90;;;;;;5031303;28;20022;-52
2023/01/24 10:59:04;;;;;;;11.47;6.80;;;3.50;99.90;;;;;;5031091;28;20059;-49
2023/01/24 11:01:36;;;;;;;11.03;6.37;;;3.50;99.90;;;;;;5030987;28;20021;-52
2023/01/24 11:04:31;;;;;;;10.23;6.50;;;3.50;99.90;;;;;;5030964;28;20027;-48
2023/01/24 11:06:57;;;;;;;11.43;6.43;;;3.60;99.90;;;;;;5017979;28;20095;-49
2023/01/24 11:09:30;;;;;;;12.63;7.13;;;3.60;99.90;;;;;;5031097;28;20108;-49
2023/01/24 11:11:57;;;;;;;11.87;6.97;;;3.70;99.90;;;;;;5030898;28;20029;-47
2023/01/24 11:14:26;;;;;;;11.60;7.30;;;3.70;99.90;;;;;;5030731;28;20040;-49
2023/01/24 11:16:55;;;;;;;10.25;7.20;;;3.60;99.90;;;;;;5030540;28;20021;-50
2023/01/24 11:19:30;;;;;;;12.75;7.15;;;3.60;99.90;;;;;;5030876;28;20025;-49
2023/01/24 11:21:58;;;;;;;11.77;7.10;;;3.60;99.90;;;;;;5030951;28;20038;-48
2023/01/24 11:24:24;;;;;;;13.50;7.07;;;3.60;99.90;;;;;;5030665;28;20025;-53
2023/01/24 11:26:56;;;;;;;11.30;7.00;;;3.50;99.90;;;;;;5030606;28;20036;-53
2023/01/24 11:29:23;;;;;;;9.67;6.40;;;3.60;99.90;;;;;;5030649;28;20036;-50
2023/01/24 11:31:53;;;;;;;10.83;7.37;;;3.60;99.90;;;;;;5030795;28;20390;-49
2023/01/24 11:34:33;;;;;;;12.30;7.20;;;3.60;99.90;;;;;;5029618;28;20033;-52
2023/01/24 11:37:30;;;;;;;13.27;7.90;;;3.40;99.90;;;;;;5030366;28;20037;-52
2023/01/24 11:40:21;;;;;;;12.27;7.73;;;3.40;99.90;;;;;;5030401;28;20064;-52
2023/01/24 11:43:10;;;;;;;11.97;7.27;;;3.30;99.90;;;;;;4999606;28;20037;-51
2023/01/24 11:46:05;;;;;;;14.60;8.00;;;3.40;99.90;;;;;;5030185;28;20033;-48
2023/01/24 11:48:58;;;;;;;12.33;7.33;;;3.40;99.90;;;;;;5030439;28;20025;-52
2023/01/24 11:51:45;;;;;;;12.57;7.90;;;3.40;99.90;;;;;;5030431;28;20036;-49
2023/01/24 11:54:53;;;;;;;11.23;7.40;;;3.50;99.90;;;;;;5030217;28;20445;-49
2023/01/24 11:57:22;;;;;;;11.53;7.20;;;3.60;99.90;;;;;;5021914;28;20084;-49
2023/01/24 11:59:59;;;;;;;11.80;8.00;;;3.50;99.90;;;;;;5030213;28;20083;-51
2023/01/24 12:02:41;;;;;;;13.37;8.23;;;3.50;99.90;;;;;;5030296;28;20478;-49
2023/01/24 12:05:41;;;;;;;11.90;7.37;;;3.50;99.90;;;;;;5030362;28;20033;-52
2023/01/24 12:08:50;;;;;;;14.83;8.63;;;3.60;99.90;;;;;;5030047;28;20037;-50
2023/01/24 12:11:37;;;;;;;13.23;7.82;;;3.60;99.90;;;;;;4982267;28;20060;-47
2023/01/24 12:14:15;;;;;;;13.43;8.30;;;3.60;99.90;;;;;;5030003;28;20080;-51
2023/01/24 12:16:55;;;;;;;13.73;8.30;;;3.50;99.90;;;;;;5029969;28;20505;-50
2023/01/24 12:19:46;;;;;;;12.83;8.57;;;3.50;99.90;;;;;;5030537;28;20038;-48
2023/01/24 12:22:19;;;;;;;11.67;8.00;;;3.50;99.90;;;;;;5030108;28;20064;-50
2023/01/24 12:24:53;;;;;;;12.97;8.20;;;3.70;99.90;;;;;;5029777;28;20458;-50
2023/01/24 12:27:26;;;;;;;12.20;7.87;;;3.80;99.90;;;;;;5029933;28;20289;-51
2023/01/24 12:29:55;;;;;;;12.10;7.63;;;3.80;99.90;;;;;;5029861;28;20095;-50
2023/01/24 12:32:46;;;;;;;12.50;7.57;;;3.80;99.90;;;;;;5029882;28;20061;-49
2023/01/24 12:35:42;;;;;;;12.97;8.23;;;3.80;99.90;;;;;;5022695;28;20484;-52
2023/01/24 12:38:18;;;;;;;12.13;8.10;;;3.90;99.90;;;;;;5029485;28;20033;-50
2023/01/24 12:41:13;;;;;;;13.33;7.80;;;3.80;99.90;;;;;;5029798;28;20039;-49
2023/01/24 12:44:00;;;;;;;14.43;7.57;;;3.90;99.90;;;;;;5018929;28;20469;-53
2023/01/24 12:46:38;;;;;;;11.30;7.83;;;4.00;99.90;;;;;;5033039;28;20554;-48
2023/01/24 12:49:29;;;;;;;11.87;7.90;;;4.00;99.90;;;;;;5033490;28;20087;-50
2023/01/24 12:52:19;;;;;;;13.57;8.27;;;4.10;99.90;;;;;;5032159;28;20083;-51
2023/01/24 12:55:14;;;;;;;12.37;8.40;;;4.00;99.90;;;;;;5033349;28;20397;-50
2023/01/24 12:57:45;;;;;;;12.57;8.23;;;4.00;99.90;;;;;;5010914;28;20478;-50
2023/01/24 13:00:23;;;;;;;12.00;8.37;;;4.10;99.90;;;;;;5033116;28;20057;-51
2023/01/24 13:03:26;;;;;;;15.43;9.27;;;4.00;99.90;;;;;;5033443;28;20030;-51
2023/01/24 13:06:26;;;;;;;15.40;9.57;;;3.70;99.90;;;;;;5032304;28;20389;-50
2023/01/24 13:08:54;;;;;;;14.83;9.20;;;3.70;99.90;;;;;;5033177;28;20037;-49
2023/01/24 13:11:30;;;;;;;15.95;10.25;;;3.60;99.90;;;;;;5033291;28;20260;-49
2023/01/24 13:14:28;;;;;;;14.50;9.40;;;3.60;99.90;;;;;;5032914;28;20167;-51
2023/01/24 13:17:25;;;;;;;12.50;8.60;;;3.60;99.90;;;;;;5032976;28;20029;-51
2023/01/24 13:20:03;;;;;;;13.53;8.90;;;3.70;99.90;;;;;;5032898;28;20052;-52
2023/01/24 13:22:38;;;;;;;12.40;9.10;;;3.70;99.90;;;;;;5033144;28;20021;-51
2023/01/24 13:25:39;;;;;;;14.10;8.83;;;3.80;99.90;;;;;;5032901;28;20424;-52
2023/01/24 13:28:07;;;;;;;13.70;8.93;;;3.90;99.90;;;;;;5009296;28;20113;-50
2023/01/24 13:30:42;;;;;;;13.53;9.30;;;3.80;99.90;;;;;;5032591;28;20445;-51
2023/01/24 13:33:13;;;;;;;13.80;9.03;;;3.80;99.90;;;;;;5032941;28;20409;-52
2023/01/24 13:35:47;;;;;;;13.20;9.63;;;3.70;99.90;;;;;;5032557;28;20033;-51
2023/01/24 13:38:26;;;;;;;14.70;9.43;;;3.70;99.90;;;;;;5032424;28;20435;-51
2023/01/24 13:41:00;;;;;;;14.80;9.88;;;3.70;99.90;;;;;;5032487;28;20096;-50
2023/01/24 13:44:04;;;;;;;13.83;9.30;;;3.70;99.90;;;;;;5032337;28;20044;-53
2023/01/24 13:46:42;;;;;;;13.57;9.37;;;3.60;99.90;;;;;;5032202;28;20033;-52